Time;durP1;ratioP1;P1;durP2;ratioP2;P2;SDS_P1;SDS_P2;PMS_P1;PMS_P2;Temp;Humidity;BMP_temperature;BMP_pressure;BME280_temperature;BME280_humidity;BME280_pressure;Samples;Min_cycle;Max_cycle;Signal;HPM_P1;HPM_P2
2023/07/08 00:00:24;;;;;;;4.97;3.20;;;;;;;18.28;54.42;101580.91;5091109;27;20361;-83
2023/07/08 00:02:49;;;;;;;3.80;3.10;;;;;;;18.28;54.33;101582.81;5047127;27;20037;-84
2023/07/08 00:05:16;;;;;;;7.93;3.38;;;;;;;18.24;54.59;101574.25;5045442;28;20018;-83
2023/07/08 00:07:42;;;;;;;4.28;3.00;;;;;;;18.21;54.67;101573.91;5066118;27;20074;-84
2023/07/08 00:10:15;;;;;;;3.33;2.85;;;;;;;18.19;54.47;101565.94;5037955;27;20025;-84
2023/07/08 00:12:41;;;;;;;3.85;3.40;;;;;;;18.20;54.54;101570.31;5024845;27;20679;-83
2023/07/08 00:15:07;;;;;;;4.70;3.22;;;;;;;18.18;54.91;101564.28;5038076;27;20033;-83
2023/07/08 00:17:32;;;;;;;4.40;2.95;;;;;;;18.16;54.65;101560.97;5052546;27;20144;-83
2023/07/08 00:19:58;;;;;;;5.68;3.25;;;;;;;18.16;54.65;101560.97;5025554;28;20559;-83
2023/07/08 00:22:24;;;;;;;4.47;3.00;;;;;;;18.11;54.86;101552.66;5026223;27;20030;-83
2023/07/08 00:24:50;;;;;;;5.63;3.50;;;;;;;18.09;54.82;101555.59;5029539;27;20491;-83
2023/07/08 00:27:15;;;;;;;4.72;3.00;;;;;;;18.05;55.03;101562.59;5047625;27;20042;-83
2023/07/08 00:29:41;;;;;;;4.40;3.03;;;;;;;17.97;55.26;101557.41;5071434;27;20025;-84
2023/07/08 00:32:12;;;;;;;3.50;2.90;;;;;;;17.93;55.73;101567.94;5038623;27;20100;-83
2023/07/08 00:34:38;;;;;;;6.07;3.33;;;;;;;17.86;55.84;101559.00;5075883;27;20015;-84
2023/07/08 00:37:10;;;;;;;4.80;2.95;;;;;;;17.86;55.71;101550.84;5062723;27;20091;-83
2023/07/08 00:39:36;;;;;;;4.43;3.00;;;;;;;17.81;55.60;101553.44;5042538;28;20025;-83
2023/07/08 00:42:01;;;;;;;3.10;2.72;;;;;;;17.80;56.01;101552.59;5083030;27;20032;-83
2023/07/08 00:44:27;;;;;;;3.45;2.90;;;;;;;17.71;56.13;101543.06;5028735;27;20036;-83
2023/07/08 00:47:03;;;;;;;3.47;2.92;;;;;;;17.67;56.51;101537.22;5037529;27;20504;-83
2023/07/08 00:49:48;;;;;;;3.47;3.00;;;;;;;17.65;56.65;101543.97;5034098;27;20055;-82
2023/07/08 00:52:23;;;;;;;5.90;2.92;;;;;;;17.58;56.83;101549.50;5035639;27;20051;-82
2023/07/08 00:54:53;;;;;;;5.07;3.08;;;;;;;17.58;56.92;101544.06;5052006;27;20458;-83
2023/07/08 00:57:21;;;;;;;6.82;3.05;;;;;;;17.54;57.04;101542.84;5044471;27;20049;-82
2023/07/08 01:00:03;;;;;;;3.78;3.00;;;;;;;17.55;56.99;101541.78;5024922;28;20037;-83
2023/07/08 01:02:28;;;;;;;4.82;3.10;;;;;;;17.51;57.22;101543.28;5030334;27;20082;-83
2023/07/08 01:05:21;;;;;;;3.10;2.78;;;;;;;17.51;57.32;101543.28;5036409;27;20029;-83
2023/07/08 01:07:51;;;;;;;6.60;3.15;;;;;;;17.49;57.29;101543.53;5032710;28;20039;-83
2023/07/08 01:10:19;;;;;;;3.85;2.88;;;;;;;17.50;57.54;101537.03;5100719;27;20023;-83
2023/07/08 01:12:48;;;;;;;3.65;2.85;;;;;;;17.45;57.43;101533.31;5052740;27;20417;-83
2023/07/08 01:15:14;;;;;;;3.60;3.00;;;;;;;17.39;57.69;101538.59;5036608;27;20026;-82
2023/07/08 01:17:41;;;;;;;3.78;3.05;;;;;;;17.38;57.89;101533.41;5048546;27;20030;-82
2023/07/08 01:20:12;;;;;;;5.05;3.08;;;;;;;17.37;57.83;101529.81;5038045;28;20022;-83
2023/07/08 01:22:38;;;;;;;7.97;3.47;;;;;;;17.32;58.41;101524.22;5032426;27;20021;-83
2023/07/08 01:25:04;;;;;;;3.92;3.08;;;;;;;17.24;58.55;101528.06;5024206;28;20067;-83
2023/07/08 01:27:32;;;;;;;4.30;3.30;;;;;;;17.26;58.62;101527.88;5039726;27;20116;-83
2023/07/08 01:30:00;;;;;;;7.97;3.60;;;;;;;17.19;58.95;101519.78;5021460;28;20077;-83
2023/07/08 01:32:28;;;;;;;3.40;2.95;;;;;;;17.16;59.01;101525.66;5013309;28;20021;-83
2023/07/08 01:35:00;;;;;;;4.72;3.25;;;;;;;17.12;59.00;101524.44;5025476;27;20090;-83
2023/07/08 01:37:59;;;;;;;6.20;3.35;;;;;;;17.09;59.15;101520.28;5002897;28;20121;-83
2023/07/08 01:40:26;;;;;;;4.20;3.42;;;;;;;17.08;59.52;101510.47;5040574;27;20037;-83
2023/07/08 01:42:51;;;;;;;4.10;3.20;;;;;;;17.08;59.25;101512.34;5059976;27;20034;-82
2023/07/08 01:45:18;;;;;;;4.07;3.65;;;;;;;17.10;59.17;101510.22;5024338;28;20030;-83
2023/07/08 01:47:50;;;;;;;5.40;3.53;;;;;;;17.07;59.19;101514.25;5071947;27;20096;-83
2023/07/08 01:50:16;;;;;;;5.25;3.10;;;;;;;17.02;59.43;101514.06;5089985;27;20468;-83
2023/07/08 01:52:41;;;;;;;4.63;3.13;;;;;;;16.95;60.18;101513.28;5070627;28;20056;-83
2023/07/08 01:55:07;;;;;;;4.68;3.88;;;;;;;16.90;60.11;101515.84;5029370;28;20483;-83
2023/07/08 01:57:35;;;;;;;4.57;3.35;;;;;;;16.86;60.22;101520.03;5064958;27;20453;-83
2023/07/08 02:00:01;;;;;;;5.65;3.60;;;;;;;16.83;60.45;101511.28;5060875;27;20025;-84
2023/07/08 02:02:26;;;;;;;4.30;3.25;;;;;;;16.81;60.79;101501.69;5107231;27;20023;-83
2023/07/08 02:04:52;;;;;;;5.07;3.33;;;;;;;16.80;60.64;101495.41;5038682;27;20065;-84
2023/07/08 02:07:17;;;;;;;4.50;3.22;;;;;;;16.78;60.77;101491.25;5045097;27;20064;-84
2023/07/08 02:09:43;;;;;;;4.22;3.65;;;;;;;16.77;60.75;101495.03;5042838;27;20477;-84
2023/07/08 02:12:08;;;;;;;4.88;3.45;;;;;;;16.78;60.80;101489.34;5039712;27;20034;-79
2023/07/08 02:14:34;;;;;;;5.43;3.60;;;;;;;16.74;60.95;101488.16;5076259;27;21903;-80
2023/07/08 02:16:59;;;;;;;4.38;3.45;;;;;;;16.68;60.94;101487.13;5060454;27;20033;-82
2023/07/08 02:19:24;;;;;;;5.13;3.50;;;;;;;16.67;61.14;101482.78;5068415;28;20037;-81
2023/07/08 02:21:51;;;;;;;3.83;3.20;;;;;;;16.68;61.16;101492.56;5023150;28;20029;-81
2023/07/08 02:24:17;;;;;;;5.72;3.45;;;;;;;16.65;61.56;101484.03;5021834;27;20098;-81
2023/07/08 02:26:42;;;;;;;6.07;3.63;;;;;;;16.65;61.34;101486.75;5034528;27;20030;-81
2023/07/08 02:29:08;;;;;;;3.47;3.17;;;;;;;16.61;61.33;101480.94;5073403;27;20332;-81
2023/07/08 02:31:33;;;;;;;6.70;3.65;;;;;;;16.51;62.04;101481.44;5036508;27;20036;-81
2023/07/08 02:33:58;;;;;;;6.75;3.63;;;;;;;16.47;62.04;101472.06;5043169;27;20364;-81
2023/07/08 02:36:24;;;;;;;4.72;3.55;;;;;;;16.47;62.18;101469.34;5041966;27;20028;-82
2023/07/08 02:38:50;;;;;;;4.63;3.85;;;;;;;16.43;62.44;101464.56;5029804;28;20104;-81
2023/07/08 02:41:16;;;;;;;4.85;3.72;;;;;;;16.39;62.41;101464.19;5068786;27;20037;-84
2023/07/08 02:43:41;;;;;;;5.00;3.83;;;;;;;16.36;62.57;101464.63;5033378;28;20040;-87
2023/07/08 02:46:07;;;;;;;5.13;4.13;;;;;;;16.31;62.70;101469.88;5036291;27;20045;-81
2023/07/08 02:48:32;;;;;;;5.25;3.92;;;;;;;16.24;63.07;101463.69;5066514;27;20078;-80
2023/07/08 02:50:59;;;;;;;4.50;3.83;;;;;;;16.24;63.06;101463.69;5076506;27;20028;-80
2023/07/08 02:53:24;;;;;;;5.30;3.88;;;;;;;16.25;63.22;101470.75;5059774;27;20116;-80
2023/07/08 02:55:50;;;;;;;7.05;3.90;;;;;;;16.18;63.38;101471.66;5107699;27;20030;-80
2023/07/08 02:58:15;;;;;;;3.72;3.35;;;;;;;16.17;63.31;101460.97;5052290;27;20106;-80
2023/07/08 03:00:40;;;;;;;6.82;3.80;;;;;;;16.11;63.52;101462.69;5076776;27;20034;-80
2023/07/08 03:03:06;;;;;;;4.40;4.00;;;;;;;16.12;63.57;101461.66;5070678;27;20029;-80
2023/07/08 03:05:31;;;;;;;5.00;3.50;;;;;;;16.11;63.79;101449.13;5044210;27;20358;-80
2023/07/08 03:07:56;;;;;;;3.88;3.58;;;;;;;16.07;63.70;101458.75;5060587;27;20032;-79
2023/07/08 03:10:22;;;;;;;4.18;3.78;;;;;;;16.10;63.52;101450.16;5051555;27;20043;-80
2023/07/08 03:12:47;;;;;;;6.07;3.63;;;;;;;16.11;63.66;101448.28;5064016;27;20055;-80
2023/07/08 03:15:13;;;;;;;6.57;3.78;;;;;;;16.10;63.67;101444.72;5050514;27;20154;-80
2023/07/08 03:17:38;;;;;;;6.00;3.80;;;;;;;16.11;63.65;101440.97;5064174;27;20021;-80
2023/07/08 03:20:05;;;;;;;5.25;4.07;;;;;;;16.15;63.56;101431.34;5088648;27;20366;-80
2023/07/08 03:22:31;;;;;;;5.75;4.07;;;;;;;16.13;63.42;101440.75;5056485;27;20032;-80
2023/07/08 03:24:56;;;;;;;5.10;3.70;;;;;;;16.14;63.65;101432.38;5063412;27;20033;-80
2023/07/08 03:27:22;;;;;;;4.70;3.67;;;;;;;16.14;63.26;101448.69;5056173;27;20069;-79
2023/07/08 03:29:47;;;;;;;5.53;3.85;;;;;;;16.12;63.43;101442.63;5077975;27;20044;-79
2023/07/08 03:32:12;;;;;;;6.30;3.63;;;;;;;16.11;63.61;101448.28;5049299;27;20032;-80
2023/07/08 03:34:38;;;;;;;6.10;4.07;;;;;;;16.10;63.65;101452.06;5089812;27;20021;-79
2023/07/08 03:37:04;;;;;;;6.53;3.75;;;;;;;16.13;63.29;101455.16;5087634;27;20102;-79
2023/07/08 03:39:32;;;;;;;5.55;3.67;;;;;;;16.10;63.64;101461.03;5118007;27;20042;-79
2023/07/08 03:41:57;;;;;;;6.75;3.83;;;;;;;16.15;63.46;101461.22;5108635;27;20014;-79
2023/07/08 03:44:22;;;;;;;4.88;3.63;;;;;;;16.17;63.32;101459.13;5088518;27;20500;-80
2023/07/08 03:46:51;;;;;;;5.38;3.90;;;;;;;16.20;63.08;101455.13;5059380;27;20045;-79
2023/07/08 03:49:22;;;;;;;5.50;3.70;;;;;;;16.19;63.22;101458.88;5049548;27;20452;-80
2023/07/08 03:51:47;;;;;;;6.30;3.50;;;;;;;16.25;62.92;101451.72;5097635;27;20030;-79
2023/07/08 03:54:13;;;;;;;3.90;3.42;;;;;;;16.26;63.03;101462.41;5051087;27;20080;-80
2023/07/08 03:56:38;;;;;;;4.28;3.53;;;;;;;16.28;62.95;101467.59;5060803;27;20022;-80
2023/07/08 03:59:07;;;;;;;4.45;3.60;;;;;;;16.33;63.12;101456.91;5122346;27;20030;-80
2023/07/08 04:01:32;;;;;;;5.55;3.90;;;;;;;16.33;63.07;101462.34;5136005;27;20021;-80
2023/07/08 04:03:58;;;;;;;5.97;3.95;;;;;;;16.32;63.03;101463.41;5049716;27;20105;-80
2023/07/08 04:06:24;;;;;;;5.45;3.78;;;;;;;16.36;62.83;101468.16;5048967;27;20029;-80
2023/07/08 04:08:49;;;;;;;5.78;4.15;;;;;;;16.38;62.96;101470.66;5124336;27;20029;-79
2023/07/08 04:11:16;;;;;;;5.32;3.63;;;;;;;16.40;62.97;101471.28;5067638;27;20036;-79
2023/07/08 04:13:42;;;;;;;6.97;4.30;;;;;;;16.48;62.77;101481.88;5094466;27;20042;-79
2023/07/08 04:16:08;;;;;;;5.05;3.78;;;;;;;16.52;62.74;101480.38;5065504;27;20033;-80
2023/07/08 04:18:33;;;;;;;4.60;4.15;;;;;;;16.58;62.75;101483.28;5056535;27;20025;-80
2023/07/08 04:20:59;;;;;;;5.90;4.20;;;;;;;16.61;62.78;101480.09;5051189;27;20032;-79
2023/07/08 04:23:24;;;;;;;5.30;3.75;;;;;;;16.69;62.17;101477.09;5075263;27;20049;-79
2023/07/08 04:25:51;;;;;;;5.78;3.88;;;;;;;16.79;62.17;101471.97;5110362;27;20045;-80
2023/07/08 04:28:17;;;;;;;4.85;4.20;;;;;;;16.84;61.72;101465.91;5064624;27;20027;-80
2023/07/08 04:30:45;;;;;;;4.38;3.75;;;;;;;16.99;61.53;101470.16;5050436;27;20121;-80
2023/07/08 04:33:11;;;;;;;5.43;3.60;;;;;;;17.24;60.61;101472.84;5051721;28;20590;-80
2023/07/08 04:35:38;;;;;;;7.03;3.78;;;;;;;17.25;60.43;101483.47;5086657;27;20052;-80
2023/07/08 04:38:09;;;;;;;4.03;3.63;;;;;;;17.53;59.85;101486.72;5028589;27;20036;-80
2023/07/08 04:40:39;;;;;;;5.75;4.00;;;;;;;17.56;59.54;101491.72;5043280;27;20080;-80
2023/07/08 04:43:10;;;;;;;6.13;3.95;;;;;;;17.59;59.60;101494.00;5102234;27;20429;-80
2023/07/08 04:45:37;;;;;;;8.90;4.07;;;;;;;17.51;59.76;101489.69;5055909;27;20384;-79
2023/07/08 04:48:08;;;;;;;6.22;3.80;;;;;;;17.46;59.90;101491.44;5053476;27;20027;-80
2023/07/08 04:50:34;;;;;;;4.90;4.00;;;;;;;17.41;60.58;101492.94;5086893;27;20355;-80
2023/07/08 04:52:59;;;;;;;4.60;3.90;;;;;;;17.36;60.76;101487.34;5082833;27;20392;-80
2023/07/08 04:55:25;;;;;;;7.30;4.20;;;;;;;17.36;60.75;101490.06;5051369;27;20019;-80
2023/07/08 04:57:50;;;;;;;4.93;3.92;;;;;;;17.38;60.85;101495.28;5072393;27;20027;-80
2023/07/08 05:00:16;;;;;;;4.75;3.78;;;;;;;17.41;60.61;101490.22;5065115;27;20023;-80
2023/07/08 05:02:42;;;;;;;4.78;4.28;;;;;;;17.45;60.68;101489.78;5053978;27;20108;-80
2023/07/08 05:05:08;;;;;;;6.60;4.35;;;;;;;17.39;60.88;101481.44;5047609;27;20077;-80
2023/07/08 05:07:33;;;;;;;6.85;4.03;;;;;;;17.41;61.05;101475.75;5056529;27;20023;-80
2023/07/08 05:09:58;;;;;;;7.75;4.10;;;;;;;17.45;60.52;101484.31;5024772;27;20037;-80
2023/07/08 05:12:25;;;;;;;5.70;4.00;;;;;;;17.51;60.16;101488.84;5089733;27;20034;-80
2023/07/08 05:14:50;;;;;;;4.45;3.90;;;;;;;17.72;59.90;101490.28;5017642;27;20438;-80
2023/07/08 05:17:16;;;;;;;5.72;3.67;;;;;;;17.96;59.59;101490.34;5058195;27;20021;-80
2023/07/08 05:19:43;;;;;;;6.65;3.80;;;;;;;18.44;58.85;101489.47;5030692;27;20086;-80
2023/07/08 05:22:09;;;;;;;6.80;3.85;;;;;;;19.27;56.84;101487.84;5030766;27;20070;-80
2023/07/08 05:24:34;;;;;;;7.20;3.97;;;;;;;20.23;53.56;101483.72;5073730;27;20025;-80
2023/07/08 05:27:00;;;;;;;4.15;3.70;;;;;;;21.17;51.14;101489.59;5044783;27;20029;-80
2023/07/08 05:29:28;;;;;;;4.80;3.80;;;;;;;22.05;48.67;101487.91;5044795;27;20017;-80
2023/07/08 05:31:56;;;;;;;5.60;3.95;;;;;;;22.53;47.17;101480.69;5028235;28;20044;-80
2023/07/08 05:34:22;;;;;;;4.32;3.42;;;;;;;22.27;47.22;101483.19;5065116;27;20033;-80
2023/07/08 05:36:47;;;;;;;5.60;3.85;;;;;;;21.87;48.06;101476.22;5047461;27;20047;-80
2023/07/08 05:39:13;;;;;;;5.85;3.95;;;;;;;22.25;47.29;101474.38;5064311;27;20142;-80
2023/07/08 05:41:38;;;;;;;5.43;4.20;;;;;;;22.25;47.28;101485.34;5070534;27;20302;-80
2023/07/08 05:44:04;;;;;;;6.97;4.13;;;;;;;22.19;47.49;101489.16;5063815;27;20037;-80
2023/07/08 05:46:30;;;;;;;4.90;4.18;;;;;;;21.44;49.58;101480.63;5071151;27;20040;-80
2023/07/08 05:49:01;;;;;;;7.93;4.38;;;;;;;21.34;49.61;101490.38;5075144;27;20032;-80
2023/07/08 05:51:26;;;;;;;7.13;4.25;;;;;;;22.45;47.25;101477.59;5100634;27;20023;-80
2023/07/08 05:53:52;;;;;;;4.57;4.15;;;;;;;22.62;47.00;101481.03;5080890;27;20036;-80
2023/07/08 05:56:17;;;;;;;4.60;4.20;;;;;;;22.30;47.40;101472.78;5069909;27;20029;-80
2023/07/08 05:58:43;;;;;;;4.65;4.00;;;;;;;22.89;45.91;101473.78;5068252;27;20453;-81
2023/07/08 06:01:08;;;;;;;4.75;3.78;;;;;;;22.87;45.84;101471.28;5076202;27;20380;-80
2023/07/08 06:03:37;;;;;;;6.20;3.60;;;;;;;23.93;43.68;101481.38;5060662;27;20097;-80
2023/07/08 06:06:02;;;;;;;3.95;3.28;;;;;;;24.32;42.82;101474.56;5088613;27;20025;-80
2023/07/08 06:08:28;;;;;;;4.20;3.33;;;;;;;24.40;42.58;101486.94;5098203;27;20025;-80
2023/07/08 06:10:53;;;;;;;4.45;3.28;;;;;;;25.17;41.15;101495.13;5050983;27;20031;-86
2023/07/08 06:13:19;;;;;;;4.13;2.95;;;;;;;25.73;40.71;101485.00;5050716;27;20033;-89
2023/07/08 06:15:44;;;;;;;3.40;3.10;;;;;;;26.19;39.34;101492.16;5102549;27;20423;-86
2023/07/08 06:18:09;;;;;;;4.35;3.00;;;;;;;26.47;38.81;101478.69;5086707;27;20044;-87
2023/07/08 06:20:35;;;;;;;4.60;2.90;;;;;;;26.60;39.01;101486.28;5049989;27;20098;-88
2023/07/08 06:23:00;;;;;;;3.20;2.78;;;;;;;26.94;37.67;101487.38;5073691;27;20033;-87
2023/07/08 06:25:26;;;;;;;7.25;3.03;;;;;;;26.36;38.91;101491.75;5047740;27;20021;-82
2023/07/08 06:27:51;;;;;;;7.80;2.75;;;;;;;26.16;39.08;101478.94;5065648;27;20022;-80
2023/07/08 06:30:16;;;;;;;5.57;2.97;;;;;;;26.99;37.94;101484.56;5044376;27;20031;-81
2023/07/08 06:32:42;;;;;;;5.65;3.00;;;;;;;26.80;38.44;101476.19;5098860;27;20472;-83
2023/07/08 06:35:08;;;;;;;4.28;3.15;;;;;;;26.44;38.97;101480.09;5055083;27;20376;-85
2023/07/08 06:37:33;;;;;;;3.72;2.60;;;;;;;28.35;35.74;101487.97;5075857;27;20061;-85
2023/07/08 06:39:59;;;;;;;5.47;2.90;;;;;;;28.71;35.26;101486.53;5058132;27;20398;-84
2023/07/08 06:42:27;;;;;;;4.32;3.10;;;;;;;29.12;34.24;101496.88;5073617;27;20369;-84
2023/07/08 06:44:55;;;;;;;6.25;2.70;;;;;;;28.60;34.99;101506.09;5064627;27;20051;-84
2023/07/08 06:47:21;;;;;;;3.30;2.60;;;;;;;29.37;34.35;101505.00;5086669;27;20122;-84
2023/07/08 06:49:47;;;;;;;3.97;2.83;;;;;;;29.43;34.65;101507.34;5100585;27;20017;-84
2023/07/08 06:52:13;;;;;;;4.43;2.80;;;;;;;29.93;33.44;101502.91;5045510;27;20029;-84
2023/07/08 06:54:41;;;;;;;5.90;2.50;;;;;;;30.92;31.89;101501.31;5075059;27;20119;-83
2023/07/08 06:57:06;;;;;;;3.38;2.53;;;;;;;31.37;31.23;101500.34;5078433;27;20021;-84
2023/07/08 06:59:32;;;;;;;6.97;2.53;;;;;;;31.48;30.47;101498.88;5048440;27;20025;-84
2023/07/08 07:02:01;;;;;;;3.70;2.80;;;;;;;31.30;30.66;101490.50;5092614;27;20021;-83
2023/07/08 07:04:27;;;;;;;4.10;2.78;;;;;;;31.99;29.54;101492.88;5057800;27;20093;-84
2023/07/08 07:06:52;;;;;;;3.58;2.65;;;;;;;31.53;30.14;101493.19;5100293;27;20033;-84
2023/07/08 07:09:18;;;;;;;4.50;2.90;;;;;;;32.11;28.83;101495.84;5045771;27;20073;-84
2023/07/08 07:11:43;;;;;;;5.22;2.67;;;;;;;32.18;28.89;101490.59;5051278;27;20248;-84
2023/07/08 07:14:08;;;;;;;3.78;2.60;;;;;;;32.00;29.51;101487.00;5090646;27;20044;-84
2023/07/08 07:16:34;;;;;;;4.03;2.70;;;;;;;32.23;28.57;101486.81;5127251;27;20037;-84
2023/07/08 07:18:59;;;;;;;6.20;2.67;;;;;;;32.19;28.05;101492.22;5101810;27;20452;-85
2023/07/08 07:21:27;;;;;;;3.83;2.92;;;;;;;32.53;28.51;101486.94;5115099;27;20023;-84
2023/07/08 07:23:53;;;;;;;5.00;2.70;;;;;;;32.35;27.81;101486.16;5119333;27;20045;-84
2023/07/08 07:26:18;;;;;;;4.97;3.10;;;;;;;31.50;29.57;101476.31;5072842;27;20029;-84
2023/07/08 07:28:44;;;;;;;3.60;2.55;;;;;;;32.31;28.31;101474.88;5051243;27;20408;-85
2023/07/08 07:31:11;;;;;;;4.40;2.90;;;;;;;32.87;27.72;101490.78;5052150;27;20031;-85
2023/07/08 07:33:36;;;;;;;3.45;2.80;;;;;;;33.11;27.67;101487.38;5046540;27;20032;-85
2023/07/08 07:36:02;;;;;;;3.83;2.80;;;;;;;32.28;28.66;101485.88;5055819;27;20104;-85
2023/07/08 07:38:28;;;;;;;3.20;2.60;;;;;;;33.79;26.71;101484.81;5106605;27;20019;-85
2023/07/08 07:40:54;;;;;;;5.50;2.88;;;;;;;32.92;27.53;101489.78;5095490;27;20033;-85
2023/07/08 07:43:20;;;;;;;3.75;2.80;;;;;;;33.31;27.36;101495.31;5050264;27;20475;-85
2023/07/08 07:45:49;;;;;;;4.43;2.60;;;;;;;33.31;27.33;101492.50;5050278;27;20029;-86
2023/07/08 07:48:15;;;;;;;5.53;3.05;;;;;;;34.16;25.18;101496.19;5045776;27;20502;-86
2023/07/08 07:50:43;;;;;;;3.15;2.60;;;;;;;32.78;26.69;101485.22;5068945;27;20041;-86
2023/07/08 07:53:09;;;;;;;3.50;2.75;;;;;;;33.69;25.67;101484.09;5063623;27;20123;-86
2023/07/08 07:55:34;;;;;;;3.65;2.97;;;;;;;34.17;25.61;101492.22;5038109;27;20485;-85
2023/07/08 07:58:00;;;;;;;4.10;2.75;;;;;;;34.71;25.59;101487.72;5034909;27;20022;-86
2023/07/08 08:00:25;;;;;;;3.97;2.88;;;;;;;35.33;24.19;101473.72;5092017;27;20105;-85
2023/07/08 08:02:50;;;;;;;4.40;3.13;;;;;;;34.51;24.73;101483.88;5072867;27;20121;-85
2023/07/08 08:05:16;;;;;;;4.45;3.45;;;;;;;34.43;24.36;101482.78;5048538;27;20045;-84
2023/07/08 08:07:41;;;;;;;4.75;3.00;;;;;;;35.28;22.89;101491.59;5088448;27;20027;-84
2023/07/08 08:10:13;;;;;;;4.97;3.25;;;;;;;35.55;22.80;101492.06;5032251;28;20033;-84
2023/07/08 08:12:50;;;;;;;3.50;3.13;;;;;;;35.61;23.30;101495.41;5029162;28;20078;-85
2023/07/08 08:15:16;;;;;;;4.85;3.03;;;;;;;34.49;24.86;101489.78;5035826;27;20039;-85
2023/07/08 08:17:47;;;;;;;3.88;3.22;;;;;;;34.24;25.09;101486.06;5071032;27;20037;-82
2023/07/08 08:20:12;;;;;;;4.15;3.30;;;;;;;34.23;25.09;101485.28;5064406;27;20363;-82
2023/07/08 08:22:37;;;;;;;5.00;3.13;;;;;;;34.28;24.30;101487.84;5043997;27;20018;-82
2023/07/08 08:25:03;;;;;;;4.53;2.97;;;;;;;35.59;23.74;101490.16;5080643;27;20045;-82
2023/07/08 08:27:28;;;;;;;3.72;3.17;;;;;;;34.64;24.50;101481.88;5027551;27;20452;-82
2023/07/08 08:29:56;;;;;;;5.05;3.35;;;;;;;35.66;23.35;101478.34;5038512;27;20032;-82
2023/07/08 08:32:22;;;;;;;3.45;3.15;;;;;;;36.02;22.76;101485.00;5023387;27;20423;-82
2023/07/08 08:34:47;;;;;;;5.22;3.50;;;;;;;35.83;22.58;101484.84;5056376;27;20030;-82
2023/07/08 08:37:15;;;;;;;3.65;3.30;;;;;;;35.55;23.48;101486.44;5036209;27;20045;-82
2023/07/08 08:39:41;;;;;;;5.10;3.35;;;;;;;35.83;22.41;101484.84;5038069;27;20117;-82
2023/07/08 08:42:24;;;;;;;6.53;3.47;;;;;;;35.64;23.62;101489.91;5051270;27;20034;-82
2023/07/08 08:44:50;;;;;;;3.97;3.60;;;;;;;34.67;23.65;101497.97;5040929;27;20044;-82
2023/07/08 08:47:27;;;;;;;4.20;3.55;;;;;;;34.24;24.87;101484.09;5023694;28;20045;-82
2023/07/08 08:50:04;;;;;;;4.38;3.60;;;;;;;35.30;23.38;101486.47;5028076;28;20120;-82
2023/07/08 08:52:30;;;;;;;5.20;3.92;;;;;;;34.99;23.33;101481.47;5042874;27;20130;-83
2023/07/08 08:54:55;;;;;;;4.43;4.03;;;;;;;35.59;22.80;101489.34;5072799;27;20513;-83
2023/07/08 08:57:36;;;;;;;7.35;3.70;;;;;;;35.44;22.94;101491.72;5050633;27;20029;-82
2023/07/08 09:00:01;;;;;;;4.30;3.90;;;;;;;35.40;23.28;101476.75;5079682;27;20097;-82
2023/07/08 09:02:29;;;;;;;7.18;4.10;;;;;;;35.06;23.72;101481.72;5068761;27;20545;-82
2023/07/08 09:05:13;;;;;;;6.13;3.67;;;;;;;36.07;22.44;101484.75;5071823;27;20057;-82
2023/07/08 09:07:52;;;;;;;5.93;3.90;;;;;;;35.82;22.79;101478.41;5025287;28;20025;-81
2023/07/08 09:10:38;;;;;;;5.85;3.90;;;;;;;36.09;22.24;101485.22;5084463;27;20085;-82
2023/07/08 09:13:06;;;;;;;4.70;4.30;;;;;;;37.01;21.96;101481.63;5071996;27;20363;-82
2023/07/08 09:15:31;;;;;;;4.60;4.20;;;;;;;36.69;22.18;101486.41;5015643;27;20722;-82
2023/07/08 09:18:03;;;;;;;4.75;4.35;;;;;;;36.85;21.75;101484.41;5012065;28;20038;-83
2023/07/08 09:20:28;;;;;;;5.95;4.13;;;;;;;37.64;20.72;101489.41;5007448;28;20029;-83
2023/07/08 09:22:56;;;;;;;6.57;3.65;;;;;;;38.07;20.53;101501.59;5026071;27;20113;-82
2023/07/08 09:25:26;;;;;;;4.95;4.07;;;;;;;37.55;21.33;101492.44;5029137;27;20049;-82
2023/07/08 09:27:51;;;;;;;6.53;3.80;;;;;;;37.30;22.14;101493.50;5034518;27;20028;-79
2023/07/08 09:30:20;;;;;;;6.28;4.25;;;;;;;37.87;21.29;101487.50;5027503;28;20100;-77
2023/07/08 09:32:45;;;;;;;6.22;4.00;;;;;;;36.79;22.00;101485.88;5027012;27;20036;-78
2023/07/08 09:35:24;;;;;;;6.75;4.40;;;;;;;37.17;22.22;101480.78;5041833;27;20021;-78
2023/07/08 09:37:49;;;;;;;6.10;4.30;;;;;;;36.37;23.29;101487.16;5030503;28;20113;-80
2023/07/08 09:40:16;;;;;;;4.93;4.43;;;;;;;36.44;22.60;101475.34;5076664;27;20096;-79
2023/07/08 09:42:42;;;;;;;5.28;3.80;;;;;;;36.68;22.42;101474.38;5107052;27;20493;-78
2023/07/08 09:45:14;;;;;;;7.90;4.55;;;;;;;36.90;21.97;101477.69;5040151;27;20038;-80
2023/07/08 09:47:43;;;;;;;6.43;4.40;;;;;;;36.80;22.76;101481.06;5103350;27;20038;-79
2023/07/08 09:50:28;;;;;;;4.38;3.97;;;;;;;37.26;21.87;101475.75;5098415;27;20028;-78
2023/07/08 09:52:57;;;;;;;5.53;4.03;;;;;;;37.70;21.46;101476.72;5059849;27;20048;-81
2023/07/08 09:55:22;;;;;;;6.32;4.50;;;;;;;37.62;20.99;101478.56;5082360;27;20156;-79
2023/07/08 09:57:48;;;;;;;5.97;4.50;;;;;;;37.51;22.53;101481.16;5090330;27;20118;-80
2023/07/08 10:00:16;;;;;;;4.35;3.95;;;;;;;37.58;22.01;101475.69;5053356;27;20025;-79
2023/07/08 10:02:58;;;;;;;7.20;4.30;;;;;;;37.17;21.90;101475.16;5084347;27;20142;-83
2023/07/08 10:05:33;;;;;;;7.00;4.40;;;;;;;36.46;23.24;101473.00;5044377;27;20048;-80
2023/07/08 10:07:59;;;;;;;5.03;4.18;;;;;;;37.48;22.22;101476.25;5033807;27;20029;-85
2023/07/08 10:10:33;;;;;;;5.35;3.97;;;;;;;37.56;22.09;101469.63;5033301;28;20119;-83
2023/07/08 10:13:01;;;;;;;4.97;4.50;;;;;;;38.35;20.95;101478.81;5054476;28;20036;-85
2023/07/08 10:15:33;;;;;;;6.65;4.38;;;;;;;37.63;21.96;101483.00;5022773;27;20036;-79
2023/07/08 10:17:59;;;;;;;5.43;4.20;;;;;;;38.77;20.95;101482.75;5035896;27;20120;-79
2023/07/08 10:20:24;;;;;;;4.38;3.92;;;;;;;38.57;20.49;101482.00;5053364;27;20028;-79
2023/07/08 10:23:05;;;;;;;7.65;4.38;;;;;;;39.18;20.27;101479.38;5013546;28;20033;-79
2023/07/08 10:25:54;;;;;;;6.75;4.72;;;;;;;37.97;20.67;101480.50;5023353;27;20116;-79
2023/07/08 10:28:38;;;;;;;5.70;4.25;;;;;;;40.06;19.50;101481.34;5044897;27;20025;-79
2023/07/08 10:31:19;;;;;;;5.82;4.80;;;;;;;38.89;19.46;101483.75;5034717;28;20072;-79
2023/07/08 10:33:50;;;;;;;7.63;4.50;;;;;;;38.63;20.31;101493.78;5043743;28;20037;-78
2023/07/08 10:36:24;;;;;;;5.00;4.45;;;;;;;38.93;19.98;101487.44;5032824;28;20033;-79
2023/07/08 10:38:59;;;;;;;7.70;4.20;;;;;;;38.29;20.98;101485.13;5023687;28;20041;-78
2023/07/08 10:41:38;;;;;;;9.05;4.68;;;;;;;38.48;20.83;101495.53;5041400;27;20021;-78
2023/07/08 10:44:18;;;;;;;6.32;4.35;;;;;;;38.21;21.11;101489.81;5038126;27;20030;-79
2023/07/08 10:46:50;;;;;;;5.03;4.43;;;;;;;38.47;21.10;101494.72;5034142;27;20089;-80
2023/07/08 10:49:40;;;;;;;6.03;4.47;;;;;;;38.24;21.22;101491.03;5064360;27;20024;-79
2023/07/08 10:52:30;;;;;;;4.70;3.95;;;;;;;38.94;20.67;101480.63;5060893;27;20507;-79
2023/07/08 10:55:29;;;;;;;6.40;4.30;;;;;;;38.47;21.70;101480.66;5075024;27;20027;-79
2023/07/08 10:58:20;;;;;;;6.50;4.45;;;;;;;38.97;21.70;101485.50;5044648;27;20041;-79
2023/07/08 11:01:18;;;;;;;6.22;4.32;;;;;;;38.95;21.66;101493.53;5029297;27;20029;-79
2023/07/08 11:03:48;;;;;;;6.47;4.50;;;;;;;38.77;21.24;101471.50;5045080;27;20041;-79
2023/07/08 11:06:50;;;;;;;5.07;4.05;;;;;;;39.31;20.82;101474.38;5108831;27;20050;-79
2023/07/08 11:09:21;;;;;;;7.13;4.38;;;;;;;38.64;21.21;101464.47;5025658;27;20022;-79
2023/07/08 11:11:59;;;;;;;6.93;4.50;;;;;;;39.30;20.99;101475.56;5040631;27;20064;-79
2023/07/08 11:14:40;;;;;;;5.32;4.07;;;;;;;38.99;20.96;101474.69;5055684;27;20288;-79
2023/07/08 11:17:29;;;;;;;5.63;4.53;;;;;;;38.58;21.40;101474.41;5030321;27;20015;-80
2023/07/08 11:20:21;;;;;;;7.28;4.60;;;;;;;38.17;21.74;101467.22;5020137;28;20108;-80
2023/07/08 11:22:54;;;;;;;5.95;4.38;;;;;;;38.93;20.79;101467.75;5012502;27;20131;-80
2023/07/08 11:25:21;;;;;;;5.35;4.43;;;;;;;39.11;21.01;101465.19;5011534;28;20052;-80
2023/07/08 11:27:47;;;;;;;4.75;4.25;;;;;;;38.66;21.23;101454.44;5021522;28;20036;-79
2023/07/08 11:30:14;;;;;;;5.95;4.70;;;;;;;38.91;21.33;101454.06;5008725;27;20104;-79